CYQZ

Quesnel Airport

Quesnel, British Columbia, Canada
METAR CYQZ 200700Z AUTO 00000KT 9SM CLR M23/M25 A3016 RMK SLP279
Observed Flight Rules
Feb-20 @ 07:00 UTC (34 minutes ago) Visual Flight Rules
Wind Visibility Clouds
Calm 9 miles
  • Clear skies
Temperatures Readings
Current -23°C / -9°F
Dewpoint -25°C / -13°F
Humidity 84%
Altimeter 30.16" Hg
Pressure 1027.9 hPa
Elevation 545
METAR CYQZ 200700Z AUTO 00000KT 9SM CLR M23/M25 A3016 RMK SLP279
Observed Flight Rules
Feb-20 @ 07:00 UTC
(34 minutes ago)
VFR
Wind Visibility
Calm 9 miles
Clouds
  • Clear skies
Temperature Dewpoint
-23°C / -9°F -25°C / -13°F
Humidity Altimeter Pressure
84% 30.16" Hg 1027.9 hPa